createdAt,value
2019-01-06T00:02:00.387Z,12.67
2019-01-06T00:04:37.745Z,8.53
2019-01-06T00:07:23.608Z,6.27
2019-01-06T00:10:11.080Z,8.60
2019-01-06T00:12:42.246Z,8.20
2019-01-06T00:15:29.284Z,11.13
2019-01-06T00:18:04.480Z,9.10
2019-01-06T00:20:41.345Z,8.93
2019-01-06T00:23:21.783Z,12.23
2019-01-06T00:26:05.189Z,7.87
2019-01-06T00:28:45.318Z,8.33
2019-01-06T00:31:16.472Z,8.83
2019-01-06T00:33:53.548Z,9.30
2019-01-06T00:36:22.822Z,7.50
2019-01-06T00:38:53.981Z,6.80
2019-01-06T00:41:41.043Z,8.27
2019-01-06T00:44:14.609Z,6.63
2019-01-06T00:47:01.769Z,7.10
2019-01-06T00:49:38.919Z,8.40
2019-01-06T00:52:10.860Z,11.97
2019-01-06T00:54:44.666Z,7.17
2019-01-06T00:57:18.916Z,5.80
2019-01-06T01:00:06.352Z,7.17
2019-01-06T01:02:52.645Z,7.80
2019-01-06T01:05:23.764Z,8.17
2019-01-06T01:07:54.949Z,10.60
2019-01-06T01:10:31.634Z,8.03
2019-01-06T01:13:02.784Z,7.93
2019-01-06T01:15:50.008Z,6.43
2019-01-06T01:18:21.143Z,7.33
2019-01-06T01:20:52.289Z,8.30
2019-01-06T01:23:24.236Z,10.90
2019-01-06T01:25:58.088Z,6.67
2019-01-06T01:28:31.893Z,6.67
2019-01-06T01:31:03.027Z,8.60
2019-01-06T01:33:50.273Z,7.20
2019-01-06T01:36:22.210Z,6.70
2019-01-06T01:38:53.347Z,8.27
2019-01-06T01:41:30.428Z,7.40
2019-01-06T01:44:07.457Z,8.77
2019-01-06T01:46:55.135Z,8.07
2019-01-06T01:49:42.478Z,10.03
2019-01-06T01:52:29.434Z,13.27
2019-01-06T01:55:10.527Z,7.70
2019-01-06T01:57:50.131Z,9.60
2019-01-06T02:00:21.270Z,14.23
2019-01-06T02:02:52.415Z,10.67
2019-01-06T02:05:21.788Z,12.43
2019-01-06T02:08:01.703Z,15.00
2019-01-06T02:10:48.970Z,8.73
2019-01-06T02:13:20.098Z,9.67
2019-01-06T02:15:57.016Z,10.30
2019-01-06T02:18:37.252Z,9.07
2019-01-06T02:21:08.420Z,8.83
2019-01-06T02:23:42.214Z,11.97
2019-01-06T02:26:14.876Z,8.00
2019-01-06T02:28:51.643Z,9.60
2019-01-06T02:31:25.463Z,13.77
2019-01-06T02:34:05.772Z,9.20
2019-01-06T02:36:48.888Z,8.10
2019-01-06T02:39:25.989Z,8.77
2019-01-06T02:42:05.778Z,10.70
2019-01-06T02:44:52.158Z,8.87
2019-01-06T02:47:39.598Z,8.20
2019-01-06T02:50:10.717Z,9.40
2019-01-06T02:52:45.516Z,11.90
2019-01-06T02:55:22.130Z,9.53
2019-01-06T02:58:09.973Z,8.93
2019-01-06T03:00:41.133Z,10.43
2019-01-06T03:03:26.596Z,9.30
2019-01-06T03:06:09.729Z,9.63
2019-01-06T03:08:58.390Z,8.90
2019-01-06T03:11:32.245Z,10.17
2019-01-06T03:14:15.246Z,9.43
2019-01-06T03:16:46.356Z,9.93
2019-01-06T03:19:23.167Z,9.80
2019-01-06T03:21:57.038Z,19.60
2019-01-06T03:24:41.258Z,10.03
2019-01-06T03:27:27.270Z,10.73
2019-01-06T03:30:01.672Z,9.67
2019-01-06T03:32:38.940Z,9.53
2019-01-06T03:35:15.950Z,12.23
2019-01-06T03:37:50.847Z,12.97
2019-01-06T03:40:22.058Z,16.70
2019-01-06T03:42:56.167Z,11.27
2019-01-06T03:45:46.833Z,15.40
2019-01-06T03:48:34.324Z,12.27
2019-01-06T03:51:21.888Z,9.87
2019-01-06T03:54:02.246Z,16.90
2019-01-06T03:56:34.655Z,9.93
2019-01-06T03:59:21.622Z,9.63
2019-01-06T04:01:53.386Z,12.43
2019-01-06T04:04:28.728Z,12.80
2019-01-06T04:07:02.803Z,12.93
2019-01-06T04:09:39.549Z,12.70
2019-01-06T04:12:21.024Z,18.23
2019-01-06T04:14:52.147Z,9.83
2019-01-06T04:17:42.093Z,14.93
2019-01-06T04:20:15.704Z,10.53
2019-01-06T04:23:02.748Z,15.83
2019-01-06T04:25:42.970Z,9.87
2019-01-06T04:28:30.631Z,11.43
2019-01-06T04:31:05.553Z,15.87
2019-01-06T04:33:39.499Z,14.40
2019-01-06T04:36:19.156Z,10.63
2019-01-06T04:39:08.178Z,16.53
2019-01-06T04:41:57.695Z,10.40
2019-01-06T04:44:34.965Z,11.53
2019-01-06T04:47:15.443Z,14.67
2019-01-06T04:50:03.172Z,21.27
2019-01-06T04:52:36.951Z,19.10
2019-01-06T04:55:17.119Z,9.03
2019-01-06T04:58:04.687Z,9.30
2019-01-06T05:00:33.983Z,20.10
2019-01-06T05:03:05.132Z,16.27
2019-01-06T05:05:36.274Z,14.07
2019-01-06T05:08:17.043Z,15.90
2019-01-06T05:11:00.386Z,21.20
2019-01-06T05:13:43.426Z,13.70
2019-01-06T05:16:30.755Z,15.77
2019-01-06T05:19:07.396Z,11.43
2019-01-06T05:21:44.186Z,12.70
2019-01-06T05:24:15.653Z,19.43
2019-01-06T05:26:55.558Z,24.03
2019-01-06T05:29:26.906Z,22.00
2019-01-06T05:31:58.111Z,27.33
2019-01-06T05:34:38.306Z,15.50
2019-01-06T05:37:21.227Z,22.43
2019-01-06T05:39:53.328Z,19.87
2019-01-06T05:42:30.215Z,15.93
2019-01-06T05:45:01.391Z,19.67
2019-01-06T05:47:44.609Z,27.17
2019-01-06T05:50:21.434Z,22.27
2019-01-06T05:53:04.778Z,18.80
2019-01-06T05:55:36.077Z,23.90
2019-01-06T05:58:16.164Z,18.60
2019-01-06T06:00:52.955Z,32.73
2019-01-06T06:03:35.955Z,20.73
2019-01-06T06:06:10.119Z,35.53
2019-01-06T06:08:41.575Z,21.17
2019-01-06T06:11:31.282Z,24.57
2019-01-06T06:14:18.124Z,15.23
2019-01-06T06:16:52.268Z,20.67
2019-01-06T06:19:31.837Z,19.37
2019-01-06T06:22:19.084Z,23.97
2019-01-06T06:25:06.226Z,20.17
2019-01-06T06:27:49.542Z,28.00
2019-01-06T06:30:26.107Z,21.60
2019-01-06T06:32:59.689Z,23.67
2019-01-06T06:35:33.225Z,20.77
2019-01-06T06:38:02.484Z,24.70
2019-01-06T06:40:39.727Z,24.97
2019-01-06T06:43:13.271Z,21.50
2019-01-06T06:45:44.422Z,17.90
2019-01-06T06:48:33.739Z,20.27
2019-01-06T06:51:20.887Z,20.47
2019-01-06T06:54:07.382Z,21.40
2019-01-06T06:56:54.576Z,20.37
2019-01-06T06:59:37.499Z,18.50
2019-01-06T07:02:38.387Z,23.63
2019-01-06T07:05:12.439Z,18.00
2019-01-06T07:07:52.757Z,23.53
2019-01-06T07:10:35.714Z,22.10
2019-01-06T07:13:10.848Z,26.37
2019-01-06T07:15:47.733Z,24.50
2019-01-06T07:18:19.409Z,24.90
2019-01-06T07:20:50.557Z,22.93
2019-01-06T07:23:29.212Z,17.73
2019-01-06T07:26:16.192Z,23.47
2019-01-06T07:28:51.726Z,22.70
2019-01-06T07:31:39.696Z,21.47
2019-01-06T07:34:10.863Z,21.40
2019-01-06T07:36:54.115Z,19.40
2019-01-06T07:39:23.809Z,23.63
2019-01-06T07:41:57.595Z,26.23
2019-01-06T07:44:43.380Z,21.23
2019-01-06T07:47:15.304Z,22.63
2019-01-06T07:50:02.397Z,22.20
2019-01-06T07:52:33.546Z,22.50
2019-01-06T07:55:10.746Z,24.13
2019-01-06T07:57:44.767Z,27.80
2019-01-06T08:00:15.971Z,24.37
2019-01-06T08:03:02.559Z,19.93
2019-01-06T08:05:45.198Z,24.87
2019-01-06T08:08:32.365Z,25.57
2019-01-06T08:11:19.541Z,21.40
2019-01-06T08:13:53.650Z,26.43
2019-01-06T08:16:42.739Z,31.17
2019-01-06T08:19:22.630Z,23.23
2019-01-06T08:21:54.565Z,25.07
2019-01-06T08:24:34.682Z,21.17
2019-01-06T08:27:24.096Z,23.87
2019-01-06T08:29:58.369Z,23.63
2019-01-06T08:32:29.923Z,25.70
2019-01-06T08:35:16.323Z,34.93
2019-01-06T08:37:56.134Z,26.53
2019-01-06T08:40:30.293Z,27.00
2019-01-06T08:43:17.950Z,30.23
2019-01-06T08:46:07.672Z,33.97
2019-01-06T08:48:54.767Z,33.80
2019-01-06T08:51:43.942Z,25.27
2019-01-06T08:54:21.111Z,27.57
2019-01-06T08:57:01.368Z,29.30
2019-01-06T08:59:48.580Z,26.10
2019-01-06T09:02:36.488Z,26.83
2019-01-06T09:05:24.126Z,26.10
2019-01-06T09:08:29.412Z,29.10
2019-01-06T09:11:01.587Z,33.77
2019-01-06T09:13:48.030Z,31.40
2019-01-06T09:16:28.400Z,22.47
2019-01-06T09:19:02.972Z,25.80
2019-01-06T09:21:32.238Z,33.47
2019-01-06T09:24:15.342Z,30.63
2019-01-06T09:26:46.488Z,18.97
2019-01-06T09:29:29.571Z,20.60
2019-01-06T09:32:06.499Z,29.53
2019-01-06T09:34:49.971Z,20.77
2019-01-06T09:37:36.848Z,25.73
2019-01-06T09:40:09.554Z,24.67
2019-01-06T09:42:52.514Z,29.97
2019-01-06T09:45:35.646Z,23.80
2019-01-06T09:48:15.371Z,24.30
2019-01-06T09:51:03.233Z,34.07
2019-01-06T09:53:37.426Z,21.50
2019-01-06T09:56:11.258Z,22.07
2019-01-06T09:58:45.083Z,18.57
2019-01-06T10:01:28.186Z,20.17
2019-01-06T10:04:08.071Z,20.23
2019-01-06T10:06:55.963Z,24.77
2019-01-06T10:09:44.531Z,24.67
2019-01-06T10:12:15.703Z,22.77
2019-01-06T10:14:50.666Z,23.53
2019-01-06T10:17:33.484Z,19.60
2019-01-06T10:20:04.625Z,28.20
2019-01-06T10:22:52.526Z,22.47
2019-01-06T10:25:32.151Z,29.43
2019-01-06T10:28:19.055Z,27.87
2019-01-06T10:31:06.506Z,23.93
2019-01-06T10:33:49.616Z,35.23
2019-01-06T10:36:37.126Z,24.33
2019-01-06T10:39:14.309Z,26.77
2019-01-06T10:42:04.091Z,32.37
2019-01-06T10:44:42.574Z,26.27
2019-01-06T10:47:13.734Z,26.53
2019-01-06T10:49:57.014Z,29.10
2019-01-06T10:52:28.192Z,30.53
2019-01-06T10:55:03.515Z,33.30
2019-01-06T10:57:37.378Z,25.43
2019-01-06T11:00:25.938Z,28.97
2019-01-06T11:02:57.638Z,36.23
2019-01-06T11:05:34.421Z,30.27
2019-01-06T11:08:08.572Z,34.73
2019-01-06T11:10:39.728Z,39.13
2019-01-06T11:13:27.126Z,36.40
2019-01-06T11:15:58.702Z,36.53
2019-01-06T11:18:45.757Z,31.17
2019-01-06T11:21:16.992Z,31.83
2019-01-06T11:23:48.142Z,38.47
2019-01-06T11:26:35.184Z,43.53
2019-01-06T11:29:21.628Z,38.50
2019-01-06T11:32:08.671Z,39.57
2019-01-06T11:34:38.079Z,35.83
2019-01-06T11:37:21.099Z,33.23
2019-01-06T11:40:10.494Z,34.00
2019-01-06T11:43:04.410Z,36.87
2019-01-06T11:45:47.498Z,34.47
2019-01-06T11:48:31.853Z,39.43
2019-01-06T11:51:19.169Z,31.67
2019-01-06T11:53:49.695Z,38.30
2019-01-06T11:56:32.851Z,52.20
2019-01-06T11:59:06.768Z,48.90
2019-01-06T12:01:37.909Z,35.77
2019-01-06T12:04:24.791Z,40.30
2019-01-06T12:07:10.636Z,43.87
2019-01-06T12:09:53.836Z,40.23
2019-01-06T12:12:24.988Z,38.87
2019-01-06T12:14:59.738Z,35.20
2019-01-06T12:17:30.957Z,42.30
2019-01-06T12:20:04.985Z,36.10
2019-01-06T12:22:45.957Z,40.33
2019-01-06T12:25:20.739Z,49.90
2019-01-06T12:27:52.656Z,42.83
2019-01-06T12:30:26.746Z,38.63
2019-01-06T12:33:10.202Z,43.67
2019-01-06T12:35:53.395Z,42.77
2019-01-06T12:38:36.276Z,38.33
2019-01-06T12:41:17.432Z,54.03
2019-01-06T12:44:04.876Z,44.17
2019-01-06T12:46:34.171Z,40.83
2019-01-06T12:49:21.828Z,48.67
2019-01-06T12:52:08.843Z,41.10
2019-01-06T12:54:42.383Z,51.97
2019-01-06T12:57:13.979Z,48.97
2019-01-06T13:00:00.306Z,37.77
2019-01-06T13:02:49.474Z,42.97
2019-01-06T13:05:36.494Z,45.03
2019-01-06T13:08:25.991Z,44.20
2019-01-06T13:11:03.277Z,56.37
2019-01-06T13:13:40.305Z,52.07
2019-01-06T13:16:17.548Z,66.57
2019-01-06T13:18:54.789Z,52.23
2019-01-06T13:21:29.009Z,41.70
2019-01-06T13:24:16.398Z,51.90
2019-01-06T13:26:56.794Z,57.90
2019-01-06T13:29:29.253Z,56.60
2019-01-06T13:32:12.086Z,63.67
2019-01-06T13:34:45.980Z,48.53
2019-01-06T13:37:35.624Z,54.67
2019-01-06T13:40:11.917Z,50.73
2019-01-06T13:42:49.100Z,50.80
2019-01-06T13:45:34.920Z,49.47
2019-01-06T13:48:22.205Z,47.47
2019-01-06T13:50:56.965Z,56.17
2019-01-06T13:56:08.190Z,58.37
2019-01-06T13:58:48.305Z,41.27
2019-01-06T14:01:34.439Z,55.73
2019-01-06T14:04:03.755Z,58.50
2019-01-06T14:06:50.692Z,53.17
2019-01-06T14:09:21.852Z,54.80
2019-01-06T14:12:01.902Z,64.33
2019-01-06T14:14:42.412Z,57.93
2019-01-06T14:17:29.536Z,62.93
2019-01-06T14:20:00.715Z,53.60
2019-01-06T14:22:29.999Z,44.23
2019-01-06T14:25:17.234Z,57.00
2019-01-06T14:28:04.321Z,53.07
2019-01-06T14:30:51.950Z,53.67
2019-01-06T14:33:31.825Z,58.00
2019-01-06T14:36:08.591Z,53.23
2019-01-06T14:38:55.904Z,61.37
2019-01-06T14:41:32.870Z,69.77
2019-01-06T14:44:06.996Z,63.40
2019-01-06T14:46:36.251Z,77.00
2019-01-06T14:49:13.871Z,82.67
2019-01-06T14:51:47.573Z,74.93
2019-01-06T14:54:34.046Z,73.10
2019-01-06T14:57:14.164Z,80.70
2019-01-06T14:59:45.413Z,65.83
2019-01-06T15:02:34.851Z,79.57
2019-01-06T15:05:21.323Z,70.23
2019-01-06T15:07:52.709Z,83.93
2019-01-06T15:10:29.379Z,70.07
2019-01-06T15:13:05.944Z,87.90
2019-01-06T15:15:53.189Z,77.20
2019-01-06T15:18:26.775Z,83.83
2019-01-06T15:20:57.995Z,91.10
2019-01-06T15:23:29.506Z,80.23
2019-01-06T15:26:03.883Z,80.80
2019-01-06T15:28:37.734Z,81.63
2019-01-06T15:31:20.689Z,82.47
2019-01-06T15:34:00.632Z,84.67
2019-01-06T15:36:38.700Z,73.13
2019-01-06T15:39:11.135Z,70.43
2019-01-06T15:42:00.299Z,75.03
2019-01-06T15:44:36.910Z,69.67
2019-01-06T15:47:17.190Z,65.70
2019-01-06T15:52:44.400Z,62.63
2019-01-06T15:55:31.685Z,76.67
2019-01-06T15:58:05.780Z,58.40
2019-01-06T16:00:36.939Z,61.60
2019-01-06T16:03:24.163Z,52.57
2019-01-06T16:06:07.046Z,50.37
2019-01-06T16:08:38.246Z,53.20
2019-01-06T16:11:18.338Z,51.63
2019-01-06T16:13:52.774Z,49.60
2019-01-06T16:16:26.453Z,46.10
2019-01-06T16:19:12.866Z,54.37
2019-01-06T16:21:54.679Z,41.57
2019-01-06T16:24:28.621Z,36.87
2019-01-06T16:26:59.741Z,44.87
2019-01-06T16:29:40.064Z,40.77
2019-01-06T16:32:27.147Z,41.27
2019-01-06T16:35:15.953Z,45.90
2019-01-06T16:38:04.304Z,39.23
2019-01-06T16:40:36.366Z,47.13
2019-01-06T16:43:10.442Z,39.13
2019-01-06T16:45:41.622Z,41.80
2019-01-06T16:48:19.704Z,41.67
2019-01-06T16:50:50.909Z,39.30
2019-01-06T16:53:38.298Z,37.53
2019-01-06T16:56:25.039Z,31.37
2019-01-06T16:58:58.991Z,36.17
2019-01-06T17:01:32.838Z,37.63
2019-01-06T17:04:20.520Z,31.07
2019-01-06T17:07:07.887Z,31.77
2019-01-06T17:09:42.723Z,26.70
2019-01-06T17:12:14.023Z,27.77
2019-01-06T17:15:01.249Z,24.27
2019-01-06T17:17:38.114Z,28.80
2019-01-06T17:20:09.883Z,25.83
2019-01-06T17:22:41.684Z,23.10
2019-01-06T17:25:29.171Z,29.57
2019-01-06T17:28:00.382Z,21.77
2019-01-06T17:30:34.250Z,21.57
2019-01-06T17:33:11.440Z,17.40
2019-01-06T17:35:52.568Z,18.50
2019-01-06T17:38:24.337Z,20.00
2019-01-06T17:41:01.004Z,28.80
2019-01-06T17:43:47.937Z,19.50
2019-01-06T17:46:35.592Z,20.33
2019-01-06T17:49:23.793Z,19.70
2019-01-06T17:52:03.856Z,17.17
2019-01-06T17:54:35.752Z,19.70
2019-01-06T17:57:06.907Z,21.70
2019-01-06T17:59:40.527Z,20.33
2019-01-06T18:02:23.623Z,14.13
2019-01-06T18:05:11.038Z,20.97
2019-01-06T18:07:42.294Z,21.03
2019-01-06T18:10:22.419Z,20.47
2019-01-06T18:13:05.241Z,17.87
2019-01-06T18:15:48.076Z,20.80
2019-01-06T18:18:23.044Z,19.80
2019-01-06T18:21:05.825Z,24.03
2019-01-06T18:23:50.101Z,23.30
2019-01-06T18:26:37.115Z,23.23
2019-01-06T18:29:11.240Z,22.17
2019-01-06T18:32:00.484Z,20.53
2019-01-06T18:34:35.248Z,21.60
2019-01-06T18:37:12.111Z,28.10
2019-01-06T18:39:48.987Z,20.53
2019-01-06T18:42:20.233Z,15.10
2019-01-06T18:44:51.376Z,19.87
2019-01-06T18:47:34.256Z,27.67
2019-01-06T18:50:06.593Z,34.17
2019-01-06T18:52:43.980Z,23.80
2019-01-06T18:55:18.999Z,28.73
2019-01-06T18:58:05.579Z,20.97
2019-01-06T19:00:36.869Z,21.23
2019-01-06T19:03:08.041Z,25.43
2019-01-06T19:05:39.972Z,24.73
2019-01-06T19:08:11.936Z,27.60
2019-01-06T19:10:43.065Z,28.80
2019-01-06T19:13:30.642Z,15.27
2019-01-06T19:16:18.189Z,21.63
2019-01-06T19:18:49.395Z,13.80
2019-01-06T19:21:20.514Z,20.57
2019-01-06T19:24:08.224Z,21.83
2019-01-06T19:26:46.387Z,16.13
2019-01-06T19:29:26.738Z,14.13
2019-01-06T19:32:15.983Z,20.97
2019-01-06T19:35:03.977Z,17.30
2019-01-06T19:37:35.131Z,16.27
2019-01-06T19:40:23.838Z,17.70
2019-01-06T19:42:57.985Z,23.20
2019-01-06T19:45:36.854Z,22.40
2019-01-06T19:48:15.802Z,14.40
2019-01-06T19:51:02.970Z,19.83
2019-01-06T19:53:38.210Z,20.27
2019-01-06T19:56:24.738Z,26.60
2019-01-06T19:59:04.572Z,28.37
2019-01-06T20:01:52.284Z,16.50
2019-01-06T20:04:24.261Z,31.63
2019-01-06T20:06:57.973Z,21.00
2019-01-06T20:09:40.774Z,13.70
2019-01-06T20:12:27.796Z,13.43
2019-01-06T20:15:14.907Z,20.97
2019-01-06T20:18:01.043Z,20.70
2019-01-06T20:20:50.552Z,35.13
2019-01-06T20:23:22.196Z,11.73
2019-01-06T20:25:56.070Z,17.33
2019-01-06T20:28:29.974Z,19.50
2019-01-06T20:31:03.780Z,16.30
2019-01-06T20:33:34.924Z,20.57
2019-01-06T20:36:21.159Z,27.10
2019-01-06T20:39:08.219Z,21.50
2019-01-06T20:41:58.896Z,28.83
2019-01-06T20:44:28.546Z,17.03
2019-01-06T20:47:15.754Z,23.67
2019-01-06T20:49:56.105Z,33.33
2019-01-06T20:52:27.908Z,22.00
2019-01-06T20:54:59.442Z,19.93
2019-01-06T20:57:36.690Z,28.10
2019-01-06T21:00:10.160Z,28.93
2019-01-06T21:02:41.842Z,23.20
2019-01-06T21:05:13.479Z,27.73
2019-01-06T21:07:50.576Z,38.07
2019-01-06T21:10:22.644Z,28.37
2019-01-06T21:13:12.318Z,26.53
2019-01-06T21:15:46.144Z,27.50
2019-01-06T21:18:19.902Z,27.50
2019-01-06T21:20:56.810Z,23.83
2019-01-06T21:23:39.680Z,27.30
2019-01-06T21:26:16.701Z,36.50
2019-01-06T21:28:56.802Z,19.83
2019-01-06T21:31:35.319Z,24.87
2019-01-06T21:34:22.871Z,24.10
2019-01-06T21:37:02.859Z,29.37
2019-01-06T21:39:36.682Z,37.43
2019-01-06T21:42:20.014Z,29.50
2019-01-06T21:44:57.239Z,25.20
2019-01-06T21:47:44.332Z,34.17
2019-01-06T21:50:15.509Z,36.00
2019-01-06T21:53:01.870Z,31.03
2019-01-06T21:55:33.033Z,29.70
2019-01-06T21:58:20.466Z,35.93
2019-01-06T22:00:54.660Z,34.47
2019-01-06T22:03:24.100Z,29.93
2019-01-06T22:06:01.156Z,25.60
2019-01-06T22:08:50.481Z,32.07
2019-01-06T22:11:33.840Z,31.10
2019-01-06T22:14:13.827Z,38.47
2019-01-06T22:16:47.544Z,34.03
2019-01-06T22:19:18.710Z,30.47
2019-01-06T22:22:05.382Z,32.73
2019-01-06T22:24:52.701Z,28.70
2019-01-06T22:27:23.882Z,34.00
2019-01-06T22:29:55.041Z,33.63
2019-01-06T22:32:28.671Z,42.77
2019-01-06T22:35:00.204Z,40.43
2019-01-06T22:37:47.713Z,22.03
2019-01-06T22:40:34.940Z,27.60
2019-01-06T22:43:21.314Z,34.40
2019-01-06T22:45:58.313Z,45.47
2019-01-06T22:48:45.414Z,35.13
2019-01-06T22:51:22.480Z,27.87
2019-01-06T22:53:54.405Z,28.07
2019-01-06T22:56:28.519Z,33.37
2019-01-06T22:59:15.485Z,28.20
2019-01-06T23:01:49.575Z,30.27
2019-01-06T23:04:20.721Z,26.30
2019-01-06T23:06:58.103Z,43.70
2019-01-06T23:09:45.254Z,23.37
2019-01-06T23:12:16.515Z,31.43
2019-01-06T23:14:59.351Z,38.70
2019-01-06T23:17:48.311Z,35.70
2019-01-06T23:20:28.399Z,32.33
2019-01-06T23:23:08.698Z,30.73
2019-01-06T23:25:39.830Z,38.47
2019-01-06T23:28:11.598Z,35.87
2019-01-06T23:30:58.668Z,42.20
2019-01-06T23:33:45.874Z,28.37
2019-01-06T23:36:22.767Z,39.07
2019-01-06T23:38:54.231Z,35.80
2019-01-06T23:41:32.597Z,37.97
2019-01-06T23:44:18.740Z,32.07
2019-01-06T23:46:48.079Z,36.70
2019-01-06T23:49:34.951Z,33.13
2019-01-06T23:52:08.919Z,46.83
2019-01-06T23:54:56.546Z,27.63
2019-01-06T23:57:27.794Z,23.43
2019-01-06T23:59:58.980Z,38.23
